Time;durP1;ratioP1;P1;durP2;ratioP2;P2;SDS_P1;SDS_P2;PMS_P1;PMS_P2;Temp;Humidity;BMP_temperature;BMP_pressure;BME280_temperature;BME280_humidity;BME280_pressure;Samples;Min_cycle;Max_cycle;Signal;HPM_P1;HPM_P2
2023/09/30 00:02:12;;;;;;;;;;;;;;;20.77;44.94;99923.88;5071358;28;19919;-63
2023/09/30 00:04:38;;;;;;;;;;;;;;;21.14;44.73;99977.31;5073983;28;20275;-62
2023/09/30 00:07:03;;;;;;;;;;;;;;;21.23;44.53;99977.59;5073403;28;20007;-62
2023/09/30 00:09:29;;;;;;;;;;;;;;;21.20;44.26;99976.22;5070931;28;19925;-63
2023/09/30 00:11:55;;;;;;;;;;;;;;;21.28;44.17;99977.56;5070840;28;19981;-61
2023/09/30 00:14:20;;;;;;;;;;;;;;;21.32;44.00;99972.34;5071997;28;19920;-63
2023/09/30 00:16:45;;;;;;;;;;;;;;;21.35;43.84;99971.81;5071781;28;19924;-63
2023/09/30 00:19:11;;;;;;;;;;;;;;;21.34;43.89;99964.69;5072929;28;19912;-64
2023/09/30 00:21:36;;;;;;;;;;;;;;;21.32;43.49;99967.72;5071948;28;19983;-63
2023/09/30 00:24:01;;;;;;;;;;;;;;;21.32;43.49;99972.34;5083480;28;19916;-63
2023/09/30 00:26:26;;;;;;;;;;;;;;;21.27;43.46;99965.81;5084024;28;19920;-62
2023/09/30 00:28:52;;;;;;;;;;;;;;;21.20;43.46;99962.56;5073714;28;20007;-62
2023/09/30 00:31:17;;;;;;;;;;;;;;;21.16;43.95;99972.41;5073222;28;19916;-64
2023/09/30 00:33:42;;;;;;;;;;;;;;;21.07;43.58;99966.69;5052672;28;20284;-62
2023/09/30 00:36:11;;;;;;;;;;;;;;;20.95;43.77;99968.91;5072236;28;20336;-64
2023/09/30 00:38:37;;;;;;;;;;;;;;;20.91;43.61;99956.88;5070397;28;20360;-64
2023/09/30 00:41:03;;;;;;;;;;;;;;;20.84;43.72;99965.34;5071813;28;19922;-64
2023/09/30 00:43:28;;;;;;;;;;;;;;;20.86;43.74;99960.44;5072577;28;19921;-64
2023/09/30 00:46:06;;;;;;;;;;;;;;;20.79;43.98;99964.53;5069094;28;19951;-63
2023/09/30 00:48:35;;;;;;;;;;;;;;;20.84;44.11;99962.63;5075880;28;19917;-62
2023/09/30 00:51:01;;;;;;;;;;;;;;;20.88;43.98;99960.97;5073714;28;19920;-61
2023/09/30 00:53:27;;;;;;;;;;;;;;;20.84;43.95;99967.28;5076424;28;19982;-58
2023/09/30 00:55:54;;;;;;;;;;;;;;;20.76;43.88;99967.81;5078135;28;20408;-60
2023/09/30 00:58:19;;;;;;;;;;;;;;;20.75;44.14;99971.63;5073713;28;19918;-59
2023/09/30 01:00:45;;;;;;;;;;;;;;;20.69;44.22;99960.72;5075603;28;19912;-58
2023/09/30 01:03:12;;;;;;;;;;;;;;;20.76;44.04;99967.81;5064937;28;20372;-60
2023/09/30 01:05:38;;;;;;;;;;;;;;;20.83;43.94;99966.44;5075597;28;19916;-61
2023/09/30 01:08:03;;;;;;;;;;;;;;;20.87;43.70;99967.50;5075915;28;19921;-60
2023/09/30 01:10:29;;;;;;;;;;;;;;;20.81;43.78;99963.16;5066382;28;19920;-58
2023/09/30 01:12:54;;;;;;;;;;;;;;;20.84;43.76;99962.63;5057479;28;19912;-60
2023/09/30 01:15:19;;;;;;;;;;;;;;;20.88;43.70;99969.16;5071684;28;20327;-60
2023/09/30 01:17:45;;;;;;;;;;;;;;;20.93;43.46;99973.81;5074916;28;19912;-60
2023/09/30 01:20:11;;;;;;;;;;;;;;;20.95;43.26;99965.31;5075656;28;19924;-61
2023/09/30 01:22:37;;;;;;;;;;;;;;;20.92;42.85;99966.69;5073409;28;19944;-60
2023/09/30 01:25:02;;;;;;;;;;;;;;;20.95;43.21;99968.06;5074958;28;19956;-59
2023/09/30 01:27:28;;;;;;;;;;;;;;;20.96;43.17;99969.72;5073035;28;19972;-59
2023/09/30 01:29:53;;;;;;;;;;;;;;;20.99;43.01;99969.97;5072463;28;19963;-60
2023/09/30 01:32:19;;;;;;;;;;;;;;;21.01;42.40;99966.97;5067989;28;19919;-60
2023/09/30 01:34:44;;;;;;;;;;;;;;;21.00;42.77;99957.94;5068476;28;19966;-60
2023/09/30 01:37:09;;;;;;;;;;;;;;;20.94;42.67;99952.78;5075715;28;19912;-60
2023/09/30 01:39:34;;;;;;;;;;;;;;;20.97;42.67;99961.25;5076723;28;20250;-65
2023/09/30 01:42:00;;;;;;;;;;;;;;;20.98;42.81;99959.31;5078564;28;19916;-65
2023/09/30 01:44:25;;;;;;;;;;;;;;;21.02;42.70;99958.50;5078321;28;19975;-65
2023/09/30 01:46:51;;;;;;;;;;;;;;;20.99;42.48;99963.72;5077287;28;19991;-65
2023/09/30 01:49:18;;;;;;;;;;;;;;;20.98;42.33;99971.06;5068735;28;19928;-65
2023/09/30 01:51:43;;;;;;;;;;;;;;;20.90;42.27;99971.63;5063688;28;19917;-64
2023/09/30 01:54:08;;;;;;;;;;;;;;;20.89;42.43;99975.44;5057146;28;19912;-65
2023/09/30 01:56:37;;;;;;;;;;;;;;;20.94;42.27;99974.63;5072517;28;19978;-65
2023/09/30 01:59:02;;;;;;;;;;;;;;;20.97;42.34;99969.44;5079575;28;20401;-65
2023/09/30 02:01:28;;;;;;;;;;;;;;;20.98;42.11;99964.78;5079605;28;19913;-65
2023/09/30 02:03:53;;;;;;;;;;;;;;;20.96;42.46;99969.72;5043441;28;19916;-64
2023/09/30 02:06:18;;;;;;;;;;;;;;;20.96;42.26;99953.31;5061561;28;19913;-65
2023/09/30 02:08:47;;;;;;;;;;;;;;;20.95;42.15;99960.69;5041149;28;19927;-64
2023/09/30 02:11:13;;;;;;;;;;;;;;;20.89;41.80;99948.13;5041599;28;20312;-64
2023/09/30 02:13:39;;;;;;;;;;;;;;;20.85;42.06;99955.25;5042381;28;20370;-64
2023/09/30 02:16:05;;;;;;;;;;;;;;;20.86;41.98;99943.25;5062240;28;19917;-64
2023/09/30 02:18:32;;;;;;;;;;;;;;;20.87;42.13;99939.41;5081243;28;19939;-64
2023/09/30 02:20:59;;;;;;;;;;;;;;;20.83;41.96;99935.59;5079843;28;19912;-64
2023/09/30 02:23:24;;;;;;;;;;;;;;;20.90;41.98;99943.50;5076179;28;19947;-64
2023/09/30 02:25:50;;;;;;;;;;;;;;;20.90;41.99;99938.06;5058159;28;19917;-62
2023/09/30 02:28:15;;;;;;;;;;;;;;;20.94;42.07;99933.69;5057627;28;19913;-64
2023/09/30 02:30:40;;;;;;;;;;;;;;;20.93;42.06;99929.28;5058959;28;19936;-64
2023/09/30 02:33:07;;;;;;;;;;;;;;;20.97;42.05;99936.69;5060147;28;19913;-64
2023/09/30 02:35:32;;;;;;;;;;;;;;;20.96;42.00;99929.56;5059201;28;19916;-65
2023/09/30 02:37:58;;;;;;;;;;;;;;;20.95;42.08;99930.69;5059682;28;19963;-65
2023/09/30 02:40:25;;;;;;;;;;;;;;;20.98;41.88;99938.28;5060203;28;19920;-65
2023/09/30 02:42:51;;;;;;;;;;;;;;;20.99;41.85;99937.22;5061028;28;19913;-64
2023/09/30 02:45:17;;;;;;;;;;;;;;;20.97;41.69;99922.19;5060110;28;19917;-64
2023/09/30 02:47:43;;;;;;;;;;;;;;;20.98;42.04;99923.84;5059696;28;20047;-64
2023/09/30 02:50:11;;;;;;;;;;;;;;;20.98;41.94;99910.19;5059345;28;20510;-64
2023/09/30 02:52:40;;;;;;;;;;;;;;;20.94;41.66;99920.84;5059713;28;19913;-64
2023/09/30 02:55:06;;;;;;;;;;;;;;;20.85;41.47;99919.75;5057615;28;20346;-64
2023/09/30 02:57:35;;;;;;;;;;;;;;;20.73;41.38;99906.41;5060547;28;19916;-64
2023/09/30 03:00:11;;;;;;;;;;;;;;;20.55;41.74;99902.28;5058791;28;19942;-63
2023/09/30 03:02:37;;;;;;;;;;;;;;;20.35;41.56;99905.84;5059312;28;19912;-64
2023/09/30 03:05:02;;;;;;;;;;;;;;;20.34;41.46;99915.13;5061540;28;19917;-64
2023/09/30 03:07:29;;;;;;;;;;;;;;;20.30;41.53;99903.13;5059889;28;19913;-64
2023/09/30 03:09:55;;;;;;;;;;;;;;;20.34;41.21;99912.41;5079914;28;20377;-64
2023/09/30 03:12:20;;;;;;;;;;;;;;;20.47;40.92;99916.50;5080566;28;19962;-64
2023/09/30 03:14:45;;;;;;;;;;;;;;;20.55;40.90;99923.31;5081745;28;19919;-64
2023/09/30 03:17:11;;;;;;;;;;;;;;;20.56;40.55;99914.03;5095230;28;19912;-64
2023/09/30 03:19:37;;;;;;;;;;;;;;;20.41;40.58;99920.28;5101546;28;19916;-63
2023/09/30 03:22:05;;;;;;;;;;;;;;;20.42;40.35;99916.50;5081443;28;20162;-64
2023/09/30 03:24:31;;;;;;;;;;;;;;;20.44;40.62;99930.66;5090258;28;19995;-64
2023/09/30 03:26:57;;;;;;;;;;;;;;;20.51;40.50;99923.03;5080882;28;19912;-64
2023/09/30 03:29:23;;;;;;;;;;;;;;;20.52;40.50;99927.38;5079208;28;19935;-64
2023/09/30 03:31:48;;;;;;;;;;;;;;;20.51;40.37;99928.50;5079687;28;19919;-64
2023/09/30 03:34:16;;;;;;;;;;;;;;;20.55;40.37;99926.03;5062541;28;19948;-64
2023/09/30 03:36:41;;;;;;;;;;;;;;;20.62;40.58;99923.88;5080595;28;20386;-64
2023/09/30 03:39:08;;;;;;;;;;;;;;;20.54;40.49;99925.22;5080568;28;19917;-64
2023/09/30 03:41:36;;;;;;;;;;;;;;;20.56;40.64;99933.13;5080571;28;19962;-64
2023/09/30 03:44:02;;;;;;;;;;;;;;;20.45;40.34;99924.13;5080458;28;19924;-64
2023/09/30 03:46:27;;;;;;;;;;;;;;;20.34;40.97;99926.03;5079565;28;19912;-64
2023/09/30 03:48:53;;;;;;;;;;;;;;;20.26;40.72;99930.13;5080342;28;19916;-64
2023/09/30 03:51:18;;;;;;;;;;;;;;;20.19;40.97;99929.56;5079146;28;19913;-64
2023/09/30 03:53:44;;;;;;;;;;;;;;;19.98;40.74;99931.41;5079687;28;19918;-64
2023/09/30 03:56:13;;;;;;;;;;;;;;;19.98;41.41;99936.06;5079819;28;19913;-64
2023/09/30 03:58:42;;;;;;;;;;;;;;;20.01;41.01;99930.91;5080071;28;20396;-64
2023/09/30 04:01:11;;;;;;;;;;;;;;;19.99;41.05;99938.53;5079232;28;20401;-64
2023/09/30 04:03:39;;;;;;;;;;;;;;;19.85;41.15;99938.19;5059612;28;19912;-64
2023/09/30 04:06:04;;;;;;;;;;;;;;;19.81;41.50;99945.28;5059513;28;19919;-64
2023/09/30 04:08:29;;;;;;;;;;;;;;;19.71;41.82;99937.88;5059841;28;19984;-64
2023/09/30 04:10:54;;;;;;;;;;;;;;;19.63;41.90;99943.84;5060049;28;19974;-64
2023/09/30 04:13:21;;;;;;;;;;;;;;;19.52;42.34;99944.88;5060115;28;19980;-64
2023/09/30 04:15:46;;;;;;;;;;;;;;;19.39;42.80;99953.53;5065631;28;19951;-64
2023/09/30 04:18:12;;;;;;;;;;;;;;;19.39;42.97;99946.19;5081040;28;19923;-64
2023/09/30 04:20:39;;;;;;;;;;;;;;;19.42;42.65;99948.38;5079554;28;19920;-64
2023/09/30 04:23:06;;;;;;;;;;;;;;;19.41;42.67;99945.91;5065007;28;19935;-64
2023/09/30 04:25:32;;;;;;;;;;;;;;;19.49;42.55;99943.50;5102150;28;20361;-64
2023/09/30 04:27:57;;;;;;;;;;;;;;;19.49;42.26;99943.50;5101574;28;20022;-64
2023/09/30 04:30:22;;;;;;;;;;;;;;;19.42;42.74;99948.38;5101319;28;19915;-65
2023/09/30 04:32:48;;;;;;;;;;;;;;;19.34;42.96;99946.97;5102653;28;20057;-65
2023/09/30 04:35:13;;;;;;;;;;;;;;;19.41;42.74;99954.91;5102954;28;19919;-65
2023/09/30 04:37:38;;;;;;;;;;;;;;;19.44;42.62;99945.38;5103005;28;19916;-65
2023/09/30 04:40:07;;;;;;;;;;;;;;;19.49;42.38;99946.22;5103387;28;20277;-65
2023/09/30 04:42:32;;;;;;;;;;;;;;;19.43;42.14;99952.75;5102722;28;19916;-65
2023/09/30 04:44:59;;;;;;;;;;;;;;;19.33;42.34;99948.06;5082968;28;20480;-65
2023/09/30 04:47:25;;;;;;;;;;;;;;;19.41;42.35;99960.34;5082244;28;19913;-64
2023/09/30 04:49:51;;;;;;;;;;;;;;;19.37;42.05;99955.69;5064317;28;20330;-64
2023/09/30 04:52:16;;;;;;;;;;;;;;;19.36;42.06;99964.97;5080462;28;19966;-65
2023/09/30 04:54:41;;;;;;;;;;;;;;;19.26;42.08;99971.16;5062147;28;19917;-65
2023/09/30 04:57:07;;;;;;;;;;;;;;;19.35;42.08;99969.56;5080506;28;19987;-64
2023/09/30 04:59:32;;;;;;;;;;;;;;;19.31;41.88;99973.91;5080386;28;19920;-65
2023/09/30 05:01:57;;;;;;;;;;;;;;;19.22;42.22;99976.28;5062260;28;19951;-65
2023/09/30 05:04:24;;;;;;;;;;;;;;;19.23;41.97;99971.69;5073477;28;19983;-64
2023/09/30 05:06:49;;;;;;;;;;;;;;;19.13;42.26;99976.00;5100024;28;19912;-65
2023/09/30 05:09:14;;;;;;;;;;;;;;;19.09;42.25;99980.31;5100077;28;19920;-65
2023/09/30 05:11:41;;;;;;;;;;;;;;;19.11;42.33;99971.88;5101122;28;20304;-64
2023/09/30 05:14:07;;;;;;;;;;;;;;;19.10;42.28;99976.50;5084021;28;19916;-65
2023/09/30 05:16:32;;;;;;;;;;;;;;;19.14;42.22;99969.44;5089427;28;19970;-65
2023/09/30 05:18:58;;;;;;;;;;;;;;;19.14;42.04;99972.16;5061940;28;20187;-64
2023/09/30 05:21:23;;;;;;;;;;;;;;;19.11;42.36;99974.59;5080443;28;20042;-65
2023/09/30 05:23:49;;;;;;;;;;;;;;;19.08;41.86;99966.97;5087508;28;19916;-64
2023/09/30 05:26:14;;;;;;;;;;;;;;;19.00;41.98;99957.41;5100088;28;19974;-64
2023/09/30 05:28:39;;;;;;;;;;;;;;;18.98;42.35;99962.28;5100339;28;19916;-64
2023/09/30 05:31:06;;;;;;;;;;;;;;;18.90;42.54;99968.19;5098927;28;19912;-65
2023/09/30 05:33:32;;;;;;;;;;;;;;;18.90;42.46;99968.19;5101151;28;19965;-65
2023/09/30 05:35:57;;;;;;;;;;;;;;;18.82;42.73;99980.38;5100551;28;19915;-65
2023/09/30 05:38:23;;;;;;;;;;;;;;;18.75;43.03;99977.84;5099711;28;19916;-65
2023/09/30 05:40:49;;;;;;;;;;;;;;;18.79;42.85;99975.44;5064942;28;19912;-66
2023/09/30 05:43:14;;;;;;;;;;;;;;;18.83;42.84;99976.56;5080818;28;19913;-65
2023/09/30 05:45:48;;;;;;;;;;;;;;;18.84;42.89;99974.69;5081291;28;19917;-65
2023/09/30 05:48:14;;;;;;;;;;;;;;;18.87;42.94;99994.03;5081178;28;20358;-65
2023/09/30 05:50:39;;;;;;;;;;;;;;;18.89;42.93;100008.19;5061998;28;19912;-65
2023/09/30 05:53:04;;;;;;;;;;;;;;;18.99;42.70;100021.06;5079214;28;19913;-65
2023/09/30 05:55:30;;;;;;;;;;;;;;;19.00;42.59;100019.16;5079164;28;19919;-65
2023/09/30 05:57:55;;;;;;;;;;;;;;;18.76;42.73;100023.03;5079866;28;19958;-65
2023/09/30 06:00:35;;;;;;;;;;;;;;;18.79;42.83;100024.41;5087846;28;19919;-65
2023/09/30 06:03:00;;;;;;;;;;;;;;;18.76;42.80;100024.94;5084158;28;19913;-65
2023/09/30 06:05:26;;;;;;;;;;;;;;;18.62;43.02;100029.16;5079162;28;19923;-65
2023/09/30 06:07:52;;;;;;;;;;;;;;;18.69;42.76;100030.56;5079556;28;19947;-65
2023/09/30 06:10:19;;;;;;;;;;;;;;;18.87;42.88;100039.47;5062696;28;19923;-65
2023/09/30 06:12:46;;;;;;;;;;;;;;;18.85;42.74;100036.19;5079588;28;19912;-65
2023/09/30 06:15:13;;;;;;;;;;;;;;;18.89;42.49;100034.59;5060019;28;19912;-65
2023/09/30 06:17:38;;;;;;;;;;;;;;;18.84;42.66;100032.66;5059243;28;19913;-65
2023/09/30 06:20:15;;;;;;;;;;;;;;;18.88;42.80;100035.66;5042006;28;19940;-65
2023/09/30 06:22:41;;;;;;;;;;;;;;;18.93;42.44;100030.28;5059754;28;20011;-65
2023/09/30 06:25:07;;;;;;;;;;;;;;;18.97;42.38;100036.84;5095991;28;19963;-65
2023/09/30 06:27:32;;;;;;;;;;;;;;;18.97;42.21;100038.75;5099107;28;20352;-65
2023/09/30 06:29:57;;;;;;;;;;;;;;;19.03;42.23;100035.78;5100338;28;19912;-65
2023/09/30 06:32:23;;;;;;;;;;;;;;;18.98;42.15;100029.47;5099444;28;20497;-65
2023/09/30 06:34:48;;;;;;;;;;;;;;;18.98;41.97;100032.19;5099974;28;19951;-65
2023/09/30 06:37:13;;;;;;;;;;;;;;;18.96;41.63;100040.63;5082235;28;19939;-65
2023/09/30 06:39:39;;;;;;;;;;;;;;;19.00;41.86;100032.75;5080498;28;19919;-65
2023/09/30 06:42:04;;;;;;;;;;;;;;;19.02;41.85;100027.88;5061617;28;19919;-65
2023/09/30 06:44:31;;;;;;;;;;;;;;;19.02;41.56;100030.59;5080391;28;19923;-64
2023/09/30 06:46:56;;;;;;;;;;;;;;;19.08;41.67;100032.28;5080792;28;20263;-65
2023/09/30 06:49:21;;;;;;;;;;;;;;;19.08;41.74;100035.81;5080859;28;19913;-65
2023/09/30 06:51:47;;;;;;;;;;;;;;;19.13;41.90;100040.50;5080003;28;19912;-65
2023/09/30 06:54:13;;;;;;;;;;;;;;;19.15;41.77;100041.88;5079269;28;19947;-65
2023/09/30 06:56:38;;;;;;;;;;;;;;;18.99;42.06;100042.03;5071512;28;19920;-64
2023/09/30 06:59:03;;;;;;;;;;;;;;;19.00;42.25;100032.75;5080631;28;19913;-65
2023/09/30 07:01:28;;;;;;;;;;;;;;;19.08;42.06;100035.81;5077083;28;20368;-65
2023/09/30 07:03:54;;;;;;;;;;;;;;;19.22;42.20;100033.47;5059663;28;19989;-65
2023/09/30 07:06:25;;;;;;;;;;;;;;;19.30;42.20;100030.28;5074065;28;20004;-65
2023/09/30 07:08:50;;;;;;;;;;;;;;;19.25;42.33;100045.75;5079678;28;19974;-65
2023/09/30 07:11:16;;;;;;;;;;;;;;;19.48;42.06;100042.66;5079766;28;19912;-65
2023/09/30 07:13:41;;;;;;;;;;;;;;;19.61;41.98;100054.13;5080388;28;20262;-66
2023/09/30 07:16:06;;;;;;;;;;;;;;;19.67;41.88;100059.38;5086245;28;19912;-65
2023/09/30 07:18:31;;;;;;;;;;;;;;;19.76;41.77;100057.00;5100976;28;20396;-65
2023/09/30 07:20:57;;;;;;;;;;;;;;;19.82;41.80;100055.94;5100222;28;19912;-65
2023/09/30 07:23:22;;;;;;;;;;;;;;;20.06;41.55;100060.94;5096670;28;20436;-65
2023/09/30 07:25:48;;;;;;;;;;;;;;;20.11;41.25;100060.94;5080154;28;19924;-65
2023/09/30 07:28:13;;;;;;;;;;;;;;;20.14;40.82;100070.50;5080536;28;19916;-65
2023/09/30 07:30:39;;;;;;;;;;;;;;;20.14;40.56;100073.25;5079992;28;20348;-65
2023/09/30 07:33:05;;;;;;;;;;;;;;;20.11;40.61;100089.06;5062622;28;19912;-65
2023/09/30 07:35:31;;;;;;;;;;;;;;;20.23;40.74;100080.63;5079390;28;19919;-65
2023/09/30 07:37:57;;;;;;;;;;;;;;;20.27;40.43;100072.75;5079973;28;19927;-65
2023/09/30 07:40:23;;;;;;;;;;;;;;;20.43;39.84;100065.41;5078957;28;19912;-65
2023/09/30 07:42:48;;;;;;;;;;;;;;;20.19;40.59;100079.53;5078676;28;19912;-65
2023/09/30 07:45:16;;;;;;;;;;;;;;;20.22;40.37;100078.16;5079542;28;19962;-65
2023/09/30 07:47:43;;;;;;;;;;;;;;;20.16;40.45;100066.41;5080454;28;19980;-65
2023/09/30 07:50:09;;;;;;;;;;;;;;;20.11;40.55;100080.03;5079771;28;19962;-65
2023/09/30 07:52:34;;;;;;;;;;;;;;;20.00;40.78;100081.06;5076599;28;19999;-65
2023/09/30 07:55:00;;;;;;;;;;;;;;;19.90;41.02;100073.69;5078831;28;19944;-65
2023/09/30 07:57:25;;;;;;;;;;;;;;;19.95;41.01;100076.44;5097881;28;20500;-65
2023/09/30 07:59:51;;;;;;;;;;;;;;;19.69;41.46;100089.06;5098516;28;19919;-65
2023/09/30 08:02:17;;;;;;;;;;;;;;;19.61;41.67;100089.56;5087201;28;19976;-65
2023/09/30 08:04:43;;;;;;;;;;;;;;;19.67;41.54;100083.06;5078368;28;20349;-65
2023/09/30 08:07:09;;;;;;;;;;;;;;;19.80;41.45;100090.81;5078036;28;19919;-65
2023/09/30 08:09:34;;;;;;;;;;;;;;;19.93;41.29;100081.34;5078156;28;19921;-65
2023/09/30 08:12:00;;;;;;;;;;;;;;;19.98;40.83;100085.97;5078052;28;19962;-65
2023/09/30 08:14:25;;;;;;;;;;;;;;;20.06;41.40;100089.03;5078255;28;19926;-65
2023/09/30 08:16:50;;;;;;;;;;;;;;;20.11;40.68;100112.75;5088274;28;19912;-65
2023/09/30 08:19:16;;;;;;;;;;;;;;;20.03;40.83;100103.16;5078937;28;19912;-66
2023/09/30 08:21:41;;;;;;;;;;;;;;;19.83;40.20;100108.53;5078581;28;20044;-66
2023/09/30 08:24:06;;;;;;;;;;;;;;;19.81;39.97;100110.69;5087083;28;20388;-65
2023/09/30 08:26:33;;;;;;;;;;;;;;;19.88;39.92;100111.28;5076716;28;19912;-65
2023/09/30 08:28:58;;;;;;;;;;;;;;;19.89;40.12;100108.28;5076465;28;19944;-65
2023/09/30 08:31:24;;;;;;;;;;;;;;;19.81;39.20;100113.41;5058581;28;19956;-65
2023/09/30 08:33:49;;;;;;;;;;;;;;;19.92;39.29;100112.38;5076743;28;19951;-65
2023/09/30 08:36:15;;;;;;;;;;;;;;;19.89;39.80;100123.81;5076904;28;19935;-65
2023/09/30 08:38:41;;;;;;;;;;;;;;;20.00;40.17;100117.34;5077314;28;19917;-65
2023/09/30 08:41:10;;;;;;;;;;;;;;;19.84;39.28;100113.72;5077588;28;20249;-65
2023/09/30 08:43:39;;;;;;;;;;;;;;;19.86;40.09;100114.25;5077392;28;19912;-65
2023/09/30 08:46:05;;;;;;;;;;;;;;;19.77;39.83;100124.03;5079237;28;19959;-65
2023/09/30 08:48:33;;;;;;;;;;;;;;;19.92;39.88;100126.81;5078302;28;19916;-65
2023/09/30 08:50:59;;;;;;;;;;;;;;;19.96;39.79;100129.84;5078703;28;19919;-65
2023/09/30 08:53:25;;;;;;;;;;;;;;;20.03;40.24;100127.72;5078143;28;19916;-65
2023/09/30 08:55:52;;;;;;;;;;;;;;;20.09;40.44;100137.53;5077298;28;19974;-65
2023/09/30 08:58:19;;;;;;;;;;;;;;;20.09;39.75;100140.28;5077634;28;19924;-65
2023/09/30 09:00:45;;;;;;;;;;;;;;;20.22;39.61;100138.97;5078072;28;19975;-65
2023/09/30 09:03:10;;;;;;;;;;;;;;;20.24;39.66;100135.97;5078107;28;20345;-65
2023/09/30 09:05:35;;;;;;;;;;;;;;;20.25;40.25;100135.72;5078981;28;20361;-65
2023/09/30 09:08:01;;;;;;;;;;;;;;;20.29;38.91;100138.75;5064648;28;20258;-65
2023/09/30 09:10:26;;;;;;;;;;;;;;;20.31;39.23;100139.28;5082768;28;20005;-65
2023/09/30 09:12:56;;;;;;;;;;;;;;;20.28;39.19;100140.66;5082691;28;19913;-65
2023/09/30 09:15:23;;;;;;;;;;;;;;;20.44;38.93;100129.78;5064264;28;19912;-65
2023/09/30 09:17:50;;;;;;;;;;;;;;;20.52;38.76;100139.38;5102357;28;19970;-65
2023/09/30 09:20:21;;;;;;;;;;;;;;;20.53;38.00;100141.81;5102996;28;20348;-65
2023/09/30 09:22:48;;;;;;;;;;;;;;;20.65;37.87;100144.34;5102674;28;19919;-65
2023/09/30 09:25:13;;;;;;;;;;;;;;;20.65;37.85;100153.38;5065377;28;19916;-65
2023/09/30 09:27:39;;;;;;;;;;;;;;;20.78;37.71;100153.94;5082101;28;19913;-65
2023/09/30 09:30:22;;;;;;;;;;;;;;;20.85;37.52;100132.66;5081472;28;20057;-65
2023/09/30 09:32:59;;;;;;;;;;;;;;;20.72;37.54;100152.28;5081225;28;19912;-65
2023/09/30 09:35:30;;;;;;;;;;;;;;;20.87;37.51;100150.41;5081884;28;20010;-65
2023/09/30 09:38:03;;;;;;;;;;;;;;;20.87;38.08;100157.78;5083212;28;19919;-65
2023/09/30 09:40:32;;;;;;;;;;;;;;;20.95;38.30;100165.44;5082241;28;19919;-65
2023/09/30 09:42:58;;;;;;;;;;;;;;;21.14;37.63;100154.00;5082601;28;19916;-65
2023/09/30 09:45:25;;;;;;;;;;;;;;;21.29;37.87;100159.47;5072666;28;19920;-65
2023/09/30 09:47:51;;;;;;;;;;;;;;;21.43;37.22;100167.94;5061918;28;19999;-65
2023/09/30 09:50:17;;;;;;;;;;;;;;;21.49;36.29;100169.63;5061852;28;19913;-65
2023/09/30 09:52:44;;;;;;;;;;;;;;;21.36;36.36;100183.78;5071262;28;19932;-65
2023/09/30 09:55:10;;;;;;;;;;;;;;;21.51;36.09;100172.91;5084402;28;19916;-65
2023/09/30 09:57:35;;;;;;;;;;;;;;;21.77;35.77;100162.75;5087388;28;19912;-65
2023/09/30 10:00:05;;;;;;;;;;;;;;;21.90;34.95;100185.97;5078072;28;19916;-65
2023/09/30 10:02:30;;;;;;;;;;;;;;;21.99;35.97;100175.28;5069616;28;19912;-65
2023/09/30 10:04:56;;;;;;;;;;;;;;;;;;5060572;28;19924;-65
2023/09/30 10:07:22;;;;;;;;;;;;;;;22.17;34.95;100177.41;5061078;28;19917;-65
2023/09/30 10:09:50;;;;;;;;;;;;;;;22.20;34.86;100174.13;5043223;28;20024;-65
2023/09/30 10:12:16;;;;;;;;;;;;;;;22.28;33.84;100185.63;5061028;28;20357;-65
2023/09/30 10:14:42;;;;;;;;;;;;;;;22.52;35.26;100191.31;5061269;28;19966;-65
2023/09/30 10:17:07;;;;;;;;;;;;;;;22.61;33.39;100190.44;5088767;28;19912;-65
2023/09/30 10:19:32;;;;;;;;;;;;;;;22.78;33.90;100189.25;5101460;28;20012;-65
2023/09/30 10:22:16;;;;;;;;;;;;;;;23.03;33.12;100192.94;5085256;28;19993;-65
2023/09/30 10:24:42;;;;;;;;;;;;;;;23.12;33.23;100194.00;5076704;28;19951;-65
2023/09/30 10:27:31;;;;;;;;;;;;;;;23.18;32.61;100203.84;5081866;28;20426;-65
2023/09/30 10:30:05;;;;;;;;;;;;;;;23.43;31.83;100202.03;5101023;28;19947;-65
2023/09/30 10:32:49;;;;;;;;;;;;;;;23.36;32.32;100199.59;5101238;28;19912;-65
2023/09/30 10:35:16;;;;;;;;;;;;;;;23.43;32.01;100194.59;5099938;28;20283;-65
2023/09/30 10:37:43;;;;;;;;;;;;;;;23.54;30.88;100206.31;5080417;28;19912;-64
2023/09/30 10:40:09;;;;;;;;;;;;;;;23.49;31.57;100214.56;5098885;28;19912;-65
2023/09/30 10:42:50;;;;;;;;;;;;;;;23.45;30.48;100208.03;5081923;28;20004;-65
2023/09/30 10:45:38;;;;;;;;;;;;;;;23.66;32.11;100212.25;5078528;28;19924;-65
2023/09/30 10:48:23;;;;;;;;;;;;;;;23.76;30.67;100234.09;5078358;28;20284;-65
2023/09/30 10:50:52;;;;;;;;;;;;;;;23.96;30.91;100210.38;5077645;28;20257;-64
2023/09/30 10:53:18;;;;;;;;;;;;;;;24.08;31.04;100213.53;5077879;28;19980;-65
2023/09/30 10:55:54;;;;;;;;;;;;;;;24.07;29.72;100231.09;5053232;28;20007;-61
2023/09/30 10:58:19;;;;;;;;;;;;;;;24.26;30.94;100213.91;5070711;28;20254;-60
2023/09/30 11:00:54;;;;;;;;;;;;;;;24.49;34.17;100215.00;5070303;28;19966;-62
2023/09/30 11:03:20;;;;;;;;;;;;;;;24.55;29.59;100211.09;5071498;28;19912;-62
2023/09/30 11:05:48;;;;;;;;;;;;;;;24.66;30.55;100207.13;5073403;28;19917;-62
2023/09/30 11:08:14;;;;;;;;;;;;;;;24.92;30.44;100221.34;5068733;28;20051;-63
2023/09/30 11:10:47;;;;;;;;;;;;;;;25.14;29.60;100210.88;5072760;28;19919;-62
2023/09/30 11:13:12;;;;;;;;;;;;;;;25.18;29.37;100222.91;5073540;28;19962;-63
2023/09/30 11:15:37;;;;;;;;;;;;;;;25.07;29.06;100220.31;5073468;28;19912;-62
2023/09/30 11:18:15;;;;;;;;;;;;;;;25.20;29.14;100218.72;5079470;28;19917;-61
2023/09/30 11:20:41;;;;;;;;;;;;;;;25.07;29.11;100225.81;5070719;28;19913;-65
2023/09/30 11:23:07;;;;;;;;;;;;;;;25.27;29.33;100232.13;5073400;28;19927;-63
2023/09/30 11:25:37;;;;;;;;;;;;;;;25.49;30.17;100229.59;5073210;28;19962;-64
2023/09/30 11:28:13;;;;;;;;;;;;;;;25.55;29.25;100224.81;5070453;28;19970;-66
2023/09/30 11:30:52;;;;;;;;;;;;;;;25.76;28.62;100224.47;5073051;28;19912;-66
2023/09/30 11:33:17;;;;;;;;;;;;;;;25.93;29.81;100233.03;5071265;28;19913;-66
2023/09/30 11:35:55;;;;;;;;;;;;;;;26.00;29.18;100216.94;5070252;28;19927;-62
2023/09/30 11:38:20;;;;;;;;;;;;;;;26.06;27.80;100223.97;5072583;28;20426;-67
2023/09/30 11:41:05;;;;;;;;;;;;;;;26.21;27.37;100233.88;5071306;28;19916;-64
2023/09/30 11:43:31;;;;;;;;;;;;;;;26.32;27.35;100233.69;5073234;28;19912;-63
2023/09/30 11:46:10;;;;;;;;;;;;;;;26.45;28.68;100227.38;5070949;28;20007;-63
2023/09/30 11:48:55;;;;;;;;;;;;;;;26.48;26.83;100237.75;5072932;28;20387;-63
2023/09/30 11:51:24;;;;;;;;;;;;;;;26.67;27.70;100245.13;5068995;28;19921;-63
2023/09/30 11:53:50;;;;;;;;;;;;;;;26.74;27.40;100246.34;5072387;28;19919;-64
2023/09/30 11:56:15;;;;;;;;;;;;;;;27.02;27.29;100249.06;5073143;28;19913;-65
2023/09/30 11:58:40;;;;;;;;;;;;;;;26.88;26.05;100242.78;5071376;28;19919;-65
2023/09/30 12:01:06;;;;;;;;;;;;;;;26.96;25.53;100248.38;5072914;28;19935;-64
2023/09/30 12:03:36;;;;;;;;;;;;;;;27.12;26.52;100264.59;5070387;28;19913;-65
2023/09/30 12:06:04;;;;;;;;;;;;;;;27.17;26.30;100258.94;5072766;28;20380;-64
2023/09/30 12:08:30;;;;;;;;;;;;;;;27.48;27.35;100252.75;5072801;28;19952;-63
2023/09/30 12:10:55;;;;;;;;;;;;;;;27.65;26.42;100252.06;5062839;28;20376;-62
2023/09/30 12:13:20;;;;;;;;;;;;;;;27.93;26.74;100252.75;5070694;28;20377;-63
2023/09/30 12:15:46;;;;;;;;;;;;;;;27.95;25.34;100262.38;5070643;28;19920;-64
2023/09/30 12:18:13;;;;;;;;;;;;;;;28.05;24.80;100260.47;5072973;28;19913;-63
2023/09/30 12:20:41;;;;;;;;;;;;;;;28.07;24.84;100253.50;5072929;28;19916;-63
2023/09/30 12:23:06;;;;;;;;;;;;;;;28.36;30.30;100253.00;5070195;28;19982;-67
2023/09/30 12:25:33;;;;;;;;;;;;;;;28.62;26.70;100254.22;5054952;28;20380;-66
2023/09/30 12:27:58;;;;;;;;;;;;;;;28.59;26.04;100260.41;5070738;28;20327;-65
2023/09/30 12:30:23;;;;;;;;;;;;;;;28.64;27.66;100263.00;5072713;28;19912;-65
2023/09/30 12:32:49;;;;;;;;;;;;;;;28.19;22.41;100255.66;5072803;28;19912;-65
2023/09/30 12:35:14;;;;;;;;;;;;;;;28.38;23.38;100267.28;5061390;28;19952;-65
2023/09/30 12:37:45;;;;;;;;;;;;;;;28.56;24.35;100270.94;5052967;28;20315;-64
2023/09/30 12:40:11;;;;;;;;;;;;;;;28.58;23.99;100259.59;5060993;28;20311;-62
2023/09/30 12:42:37;;;;;;;;;;;;;;;28.32;22.91;100260.25;5076453;28;19916;-62